sensor_id;sensor_type;location;lat;lon;timestamp;P1;durP1;ratioP1;P2;durP2;ratioP2
41815;SDS011;27814;53.452;-6.180;2023-01-16T00:01:30;11.70;;;8.10;;
41815;SDS011;27814;53.452;-6.180;2023-01-16T00:03:59;11.07;;;7.72;;
41815;SDS011;27814;53.452;-6.180;2023-01-16T00:06:27;10.60;;;7.35;;
41815;SDS011;27814;53.452;-6.180;2023-01-16T00:08:57;8.32;;;5.80;;
41815;SDS011;27814;53.452;-6.180;2023-01-16T00:11:25;9.18;;;6.22;;
41815;SDS011;27814;53.452;-6.180;2023-01-16T00:13:54;9.60;;;6.00;;
41815;SDS011;27814;53.452;-6.180;2023-01-16T00:16:22;9.38;;;6.03;;
41815;SDS011;27814;53.452;-6.180;2023-01-16T00:18:50;9.85;;;5.68;;
41815;SDS011;27814;53.452;-6.180;2023-01-16T00:21:19;6.82;;;5.35;;
41815;SDS011;27814;53.452;-6.180;2023-01-16T00:23:50;9.57;;;5.53;;
41815;SDS011;27814;53.452;-6.180;2023-01-16T00:26:20;8.38;;;5.10;;
41815;SDS011;27814;53.452;-6.180;2023-01-16T00:28:49;7.45;;;4.88;;
41815;SDS011;27814;53.452;-6.180;2023-01-16T00:31:17;6.40;;;4.53;;
41815;SDS011;27814;53.452;-6.180;2023-01-16T00:33:46;7.93;;;4.90;;
41815;SDS011;27814;53.452;-6.180;2023-01-16T00:36:14;6.25;;;4.93;;
41815;SDS011;27814;53.452;-6.180;2023-01-16T00:38:42;7.85;;;4.95;;
41815;SDS011;27814;53.452;-6.180;2023-01-16T00:41:11;7.43;;;4.90;;
41815;SDS011;27814;53.452;-6.180;2023-01-16T00:43:40;7.78;;;4.88;;
41815;SDS011;27814;53.452;-6.180;2023-01-16T00:46:09;9.38;;;4.70;;
41815;SDS011;27814;53.452;-6.180;2023-01-16T00:48:39;7.88;;;4.68;;
41815;SDS011;27814;53.452;-6.180;2023-01-16T00:51:07;7.80;;;4.63;;
41815;SDS011;27814;53.452;-6.180;2023-01-16T00:53:35;6.82;;;4.60;;
41815;SDS011;27814;53.452;-6.180;2023-01-16T00:56:04;6.43;;;4.30;;
41815;SDS011;27814;53.452;-6.180;2023-01-16T00:58:33;6.07;;;3.40;;
41815;SDS011;27814;53.452;-6.180;2023-01-16T01:01:03;5.72;;;3.08;;
41815;SDS011;27814;53.452;-6.180;2023-01-16T01:03:32;4.57;;;2.83;;
41815;SDS011;27814;53.452;-6.180;2023-01-16T01:06:04;4.43;;;2.75;;
41815;SDS011;27814;53.452;-6.180;2023-01-16T01:08:33;5.20;;;2.75;;
41815;SDS011;27814;53.452;-6.180;2023-01-16T01:11:05;7.00;;;2.70;;
41815;SDS011;27814;53.452;-6.180;2023-01-16T01:13:34;4.80;;;2.40;;
41815;SDS011;27814;53.452;-6.180;2023-01-16T01:16:04;7.82;;;2.65;;
41815;SDS011;27814;53.452;-6.180;2023-01-16T01:18:33;6.03;;;2.58;;
41815;SDS011;27814;53.452;-6.180;2023-01-16T01:21:02;5.32;;;2.53;;
41815;SDS011;27814;53.452;-6.180;2023-01-16T01:23:30;6.13;;;2.50;;
41815;SDS011;27814;53.452;-6.180;2023-01-16T01:26:04;6.95;;;2.95;;
41815;SDS011;27814;53.452;-6.180;2023-01-16T01:28:33;4.47;;;2.30;;
41815;SDS011;27814;53.452;-6.180;2023-01-16T01:31:02;6.20;;;2.55;;
41815;SDS011;27814;53.452;-6.180;2023-01-16T01:33:32;6.53;;;2.85;;
41815;SDS011;27814;53.452;-6.180;2023-01-16T01:36:01;6.35;;;2.63;;
41815;SDS011;27814;53.452;-6.180;2023-01-16T01:38:30;5.10;;;2.58;;
41815;SDS011;27814;53.452;-6.180;2023-01-16T01:40:58;6.05;;;2.83;;
41815;SDS011;27814;53.452;-6.180;2023-01-16T01:46:25;6.25;;;2.40;;
41815;SDS011;27814;53.452;-6.180;2023-01-16T01:48:58;6.57;;;2.83;;
41815;SDS011;27814;53.452;-6.180;2023-01-16T01:51:32;7.25;;;2.90;;
41815;SDS011;27814;53.452;-6.180;2023-01-16T01:54:05;4.28;;;3.08;;
41815;SDS011;27814;53.452;-6.180;2023-01-16T01:56:36;5.15;;;2.80;;
41815;SDS011;27814;53.452;-6.180;2023-01-16T01:59:11;4.05;;;2.53;;
41815;SDS011;27814;53.452;-6.180;2023-01-16T02:01:46;3.67;;;2.25;;
41815;SDS011;27814;53.452;-6.180;2023-01-16T02:04:15;5.20;;;2.60;;
41815;SDS011;27814;53.452;-6.180;2023-01-16T02:06:47;4.75;;;2.30;;
41815;SDS011;27814;53.452;-6.180;2023-01-16T02:09:18;5.00;;;2.53;;
41815;SDS011;27814;53.452;-6.180;2023-01-16T02:11:51;4.43;;;2.63;;
41815;SDS011;27814;53.452;-6.180;2023-01-16T02:14:21;4.30;;;2.47;;
41815;SDS011;27814;53.452;-6.180;2023-01-16T02:16:55;6.95;;;3.10;;
41815;SDS011;27814;53.452;-6.180;2023-01-16T02:19:46;4.10;;;2.45;;
41815;SDS011;27814;53.452;-6.180;2023-01-16T02:22:29;5.22;;;2.45;;
41815;SDS011;27814;53.452;-6.180;2023-01-16T02:25:24;5.22;;;2.15;;
41815;SDS011;27814;53.452;-6.180;2023-01-16T02:28:24;4.28;;;2.08;;
41815;SDS011;27814;53.452;-6.180;2023-01-16T02:31:23;5.18;;;2.15;;
41815;SDS011;27814;53.452;-6.180;2023-01-16T02:34:03;3.95;;;2.13;;
41815;SDS011;27814;53.452;-6.180;2023-01-16T02:36:43;3.25;;;2.00;;
41815;SDS011;27814;53.452;-6.180;2023-01-16T02:39:21;4.38;;;2.13;;
41815;SDS011;27814;53.452;-6.180;2023-01-16T02:42:02;3.33;;;1.95;;
41815;SDS011;27814;53.452;-6.180;2023-01-16T02:44:37;3.78;;;1.90;;
41815;SDS011;27814;53.452;-6.180;2023-01-16T02:47:14;3.58;;;2.10;;
41815;SDS011;27814;53.452;-6.180;2023-01-16T02:49:46;4.05;;;2.30;;
41815;SDS011;27814;53.452;-6.180;2023-01-16T02:52:19;5.57;;;2.33;;
41815;SDS011;27814;53.452;-6.180;2023-01-16T02:54:56;3.20;;;2.20;;
41815;SDS011;27814;53.452;-6.180;2023-01-16T02:57:31;2.85;;;1.80;;
41815;SDS011;27814;53.452;-6.180;2023-01-16T03:00:05;3.80;;;2.00;;
41815;SDS011;27814;53.452;-6.180;2023-01-16T03:02:37;2.40;;;1.52;;
41815;SDS011;27814;53.452;-6.180;2023-01-16T03:05:06;2.70;;;1.80;;
41815;SDS011;27814;53.452;-6.180;2023-01-16T03:10:46;2.40;;;1.60;;
41815;SDS011;27814;53.452;-6.180;2023-01-16T03:13:36;1.60;;;1.27;;
41815;SDS011;27814;53.452;-6.180;2023-01-16T03:16:20;2.53;;;1.40;;
41815;SDS011;27814;53.452;-6.180;2023-01-16T03:18:59;1.98;;;1.40;;
41815;SDS011;27814;53.452;-6.180;2023-01-16T03:21:37;1.98;;;1.08;;
41815;SDS011;27814;53.452;-6.180;2023-01-16T03:24:13;1.58;;;1.00;;
41815;SDS011;27814;53.452;-6.180;2023-01-16T03:26:52;2.00;;;0.88;;
41815;SDS011;27814;53.452;-6.180;2023-01-16T03:29:27;2.30;;;1.20;;
41815;SDS011;27814;53.452;-6.180;2023-01-16T03:32:02;2.25;;;1.00;;
41815;SDS011;27814;53.452;-6.180;2023-01-16T03:34:38;1.38;;;1.00;;
41815;SDS011;27814;53.452;-6.180;2023-01-16T03:37:11;3.00;;;1.15;;
41815;SDS011;27814;53.452;-6.180;2023-01-16T03:39:45;1.55;;;1.05;;
41815;SDS011;27814;53.452;-6.180;2023-01-16T03:42:19;2.42;;;1.10;;
41815;SDS011;27814;53.452;-6.180;2023-01-16T03:44:52;4.25;;;1.40;;
41815;SDS011;27814;53.452;-6.180;2023-01-16T03:47:25;1.53;;;1.03;;
41815;SDS011;27814;53.452;-6.180;2023-01-16T03:49:59;1.50;;;1.05;;
41815;SDS011;27814;53.452;-6.180;2023-01-16T03:52:31;1.40;;;1.08;;
41815;SDS011;27814;53.452;-6.180;2023-01-16T03:55:07;2.03;;;0.90;;
41815;SDS011;27814;53.452;-6.180;2023-01-16T03:57:44;1.80;;;1.13;;
41815;SDS011;27814;53.452;-6.180;2023-01-16T04:00:17;1.88;;;1.00;;
41815;SDS011;27814;53.452;-6.180;2023-01-16T04:02:51;2.72;;;0.90;;
41815;SDS011;27814;53.452;-6.180;2023-01-16T04:05:27;0.98;;;0.77;;
41815;SDS011;27814;53.452;-6.180;2023-01-16T04:07:59;1.77;;;0.80;;
41815;SDS011;27814;53.452;-6.180;2023-01-16T04:10:30;1.55;;;0.60;;
41815;SDS011;27814;53.452;-6.180;2023-01-16T04:13:02;2.22;;;0.80;;
41815;SDS011;27814;53.452;-6.180;2023-01-16T04:15:34;1.50;;;0.40;;
41815;SDS011;27814;53.452;-6.180;2023-01-16T04:18:07;1.45;;;0.50;;
41815;SDS011;27814;53.452;-6.180;2023-01-16T04:20:36;1.85;;;0.50;;
41815;SDS011;27814;53.452;-6.180;2023-01-16T04:23:07;4.10;;;0.50;;
41815;SDS011;27814;53.452;-6.180;2023-01-16T04:25:35;1.33;;;0.40;;
41815;SDS011;27814;53.452;-6.180;2023-01-16T04:28:04;1.88;;;0.70;;
41815;SDS011;27814;53.452;-6.180;2023-01-16T04:30:32;1.00;;;0.50;;
41815;SDS011;27814;53.452;-6.180;2023-01-16T04:33:00;2.27;;;0.63;;
41815;SDS011;27814;53.452;-6.180;2023-01-16T04:35:29;2.97;;;0.40;;
41815;SDS011;27814;53.452;-6.180;2023-01-16T04:38:00;2.50;;;0.35;;
41815;SDS011;27814;53.452;-6.180;2023-01-16T04:40:29;2.20;;;0.40;;
41815;SDS011;27814;53.452;-6.180;2023-01-16T04:42:57;1.42;;;0.43;;
41815;SDS011;27814;53.452;-6.180;2023-01-16T04:45:25;2.72;;;0.47;;
41815;SDS011;27814;53.452;-6.180;2023-01-16T04:47:54;3.22;;;0.60;;
41815;SDS011;27814;53.452;-6.180;2023-01-16T04:50:22;1.88;;;0.40;;
41815;SDS011;27814;53.452;-6.180;2023-01-16T04:52:50;3.23;;;0.50;;
41815;SDS011;27814;53.452;-6.180;2023-01-16T04:55:20;1.88;;;0.60;;
41815;SDS011;27814;53.452;-6.180;2023-01-16T04:57:48;2.70;;;0.50;;
41815;SDS011;27814;53.452;-6.180;2023-01-16T05:00:17;3.78;;;0.70;;
41815;SDS011;27814;53.452;-6.180;2023-01-16T05:02:46;3.60;;;0.53;;
41815;SDS011;27814;53.452;-6.180;2023-01-16T05:05:14;4.30;;;0.68;;
41815;SDS011;27814;53.452;-6.180;2023-01-16T05:07:42;3.47;;;0.73;;
41815;SDS011;27814;53.452;-6.180;2023-01-16T05:10:11;2.00;;;0.40;;
41815;SDS011;27814;53.452;-6.180;2023-01-16T05:12:43;2.97;;;0.60;;
41815;SDS011;27814;53.452;-6.180;2023-01-16T05:15:11;3.25;;;0.57;;
41815;SDS011;27814;53.452;-6.180;2023-01-16T05:17:39;3.87;;;0.40;;
41815;SDS011;27814;53.452;-6.180;2023-01-16T05:20:08;3.78;;;0.50;;
41815;SDS011;27814;53.452;-6.180;2023-01-16T05:22:37;4.70;;;0.70;;
41815;SDS011;27814;53.452;-6.180;2023-01-16T05:25:05;3.67;;;0.60;;
41815;SDS011;27814;53.452;-6.180;2023-01-16T05:27:34;2.20;;;0.40;;
41815;SDS011;27814;53.452;-6.180;2023-01-16T05:30:04;1.10;;;0.40;;
41815;SDS011;27814;53.452;-6.180;2023-01-16T05:32:33;6.80;;;1.00;;
41815;SDS011;27814;53.452;-6.180;2023-01-16T05:35:01;2.28;;;0.60;;
41815;SDS011;27814;53.452;-6.180;2023-01-16T05:37:30;2.75;;;0.50;;
41815;SDS011;27814;53.452;-6.180;2023-01-16T05:39:58;3.90;;;0.98;;
41815;SDS011;27814;53.452;-6.180;2023-01-16T05:42:26;3.30;;;0.70;;
41815;SDS011;27814;53.452;-6.180;2023-01-16T05:44:55;3.85;;;0.60;;
41815;SDS011;27814;53.452;-6.180;2023-01-16T05:47:24;2.85;;;0.60;;
41815;SDS011;27814;53.452;-6.180;2023-01-16T05:49:53;3.05;;;0.75;;
41815;SDS011;27814;53.452;-6.180;2023-01-16T05:52:24;4.10;;;0.85;;
41815;SDS011;27814;53.452;-6.180;2023-01-16T05:54:52;4.03;;;0.70;;
41815;SDS011;27814;53.452;-6.180;2023-01-16T05:57:22;4.80;;;0.93;;
41815;SDS011;27814;53.452;-6.180;2023-01-16T05:59:51;3.15;;;0.73;;
41815;SDS011;27814;53.452;-6.180;2023-01-16T06:02:20;3.28;;;1.00;;
41815;SDS011;27814;53.452;-6.180;2023-01-16T06:04:50;2.33;;;0.70;;
41815;SDS011;27814;53.452;-6.180;2023-01-16T06:07:19;2.90;;;0.90;;
41815;SDS011;27814;53.452;-6.180;2023-01-16T06:09:47;2.05;;;0.70;;
41815;SDS011;27814;53.452;-6.180;2023-01-16T06:12:16;2.58;;;0.82;;
41815;SDS011;27814;53.452;-6.180;2023-01-16T06:14:45;4.25;;;0.70;;
41815;SDS011;27814;53.452;-6.180;2023-01-16T06:17:14;4.25;;;0.70;;
41815;SDS011;27814;53.452;-6.180;2023-01-16T06:19:43;3.95;;;0.70;;
41815;SDS011;27814;53.452;-6.180;2023-01-16T06:22:13;4.38;;;0.90;;
41815;SDS011;27814;53.452;-6.180;2023-01-16T06:24:41;4.70;;;1.10;;
41815;SDS011;27814;53.452;-6.180;2023-01-16T06:27:10;1.90;;;0.70;;
41815;SDS011;27814;53.452;-6.180;2023-01-16T06:29:38;5.78;;;0.93;;
41815;SDS011;27814;53.452;-6.180;2023-01-16T06:32:07;1.77;;;0.60;;
41815;SDS011;27814;53.452;-6.180;2023-01-16T06:34:36;3.65;;;0.70;;
41815;SDS011;27814;53.452;-6.180;2023-01-16T06:37:04;3.40;;;0.70;;
41815;SDS011;27814;53.452;-6.180;2023-01-16T06:39:34;3.75;;;0.68;;
41815;SDS011;27814;53.452;-6.180;2023-01-16T06:42:02;2.20;;;0.80;;
41815;SDS011;27814;53.452;-6.180;2023-01-16T06:44:31;3.05;;;0.90;;
41815;SDS011;27814;53.452;-6.180;2023-01-16T06:47:00;2.58;;;0.93;;
41815;SDS011;27814;53.452;-6.180;2023-01-16T06:49:28;3.53;;;1.30;;
41815;SDS011;27814;53.452;-6.180;2023-01-16T06:51:56;3.40;;;0.82;;
41815;SDS011;27814;53.452;-6.180;2023-01-16T06:54:26;3.57;;;1.00;;
41815;SDS011;27814;53.452;-6.180;2023-01-16T06:56:56;4.25;;;1.00;;
41815;SDS011;27814;53.452;-6.180;2023-01-16T06:59:24;7.43;;;1.30;;
41815;SDS011;27814;53.452;-6.180;2023-01-16T07:01:52;3.00;;;0.77;;
41815;SDS011;27814;53.452;-6.180;2023-01-16T07:04:21;3.20;;;0.70;;
41815;SDS011;27814;53.452;-6.180;2023-01-16T07:06:49;4.32;;;0.88;;
41815;SDS011;27814;53.452;-6.180;2023-01-16T07:09:18;2.53;;;0.70;;
41815;SDS011;27814;53.452;-6.180;2023-01-16T07:11:48;4.22;;;0.70;;
41815;SDS011;27814;53.452;-6.180;2023-01-16T07:14:18;3.50;;;1.10;;
41815;SDS011;27814;53.452;-6.180;2023-01-16T07:17:04;3.35;;;0.77;;
41815;SDS011;27814;53.452;-6.180;2023-01-16T07:19:50;2.05;;;0.50;;
41815;SDS011;27814;53.452;-6.180;2023-01-16T07:22:35;4.40;;;0.70;;
41815;SDS011;27814;53.452;-6.180;2023-01-16T07:25:06;5.75;;;0.73;;
41815;SDS011;27814;53.452;-6.180;2023-01-16T07:27:38;4.85;;;0.57;;
41815;SDS011;27814;53.452;-6.180;2023-01-16T07:30:10;3.87;;;0.50;;
41815;SDS011;27814;53.452;-6.180;2023-01-16T07:32:39;3.42;;;0.90;;
41815;SDS011;27814;53.452;-6.180;2023-01-16T07:35:07;6.32;;;0.90;;
41815;SDS011;27814;53.452;-6.180;2023-01-16T07:37:36;5.33;;;0.80;;
41815;SDS011;27814;53.452;-6.180;2023-01-16T07:40:05;3.28;;;0.60;;
41815;SDS011;27814;53.452;-6.180;2023-01-16T07:42:34;3.38;;;0.60;;
41815;SDS011;27814;53.452;-6.180;2023-01-16T07:45:03;4.00;;;0.88;;
41815;SDS011;27814;53.452;-6.180;2023-01-16T07:47:34;2.00;;;0.40;;
41815;SDS011;27814;53.452;-6.180;2023-01-16T07:50:03;4.13;;;0.67;;
41815;SDS011;27814;53.452;-6.180;2023-01-16T07:52:32;4.97;;;0.70;;
41815;SDS011;27814;53.452;-6.180;2023-01-16T07:55:01;2.97;;;0.80;;
41815;SDS011;27814;53.452;-6.180;2023-01-16T07:57:29;5.03;;;0.60;;
41815;SDS011;27814;53.452;-6.180;2023-01-16T07:59:58;3.50;;;0.85;;
41815;SDS011;27814;53.452;-6.180;2023-01-16T08:02:26;4.90;;;1.23;;
41815;SDS011;27814;53.452;-6.180;2023-01-16T08:04:56;4.68;;;0.77;;
41815;SDS011;27814;53.452;-6.180;2023-01-16T08:07:24;2.95;;;0.55;;
41815;SDS011;27814;53.452;-6.180;2023-01-16T08:09:52;3.92;;;1.10;;
41815;SDS011;27814;53.452;-6.180;2023-01-16T08:12:20;3.30;;;0.55;;
41815;SDS011;27814;53.452;-6.180;2023-01-16T08:14:49;1.55;;;0.60;;
41815;SDS011;27814;53.452;-6.180;2023-01-16T08:17:17;4.07;;;0.60;;
41815;SDS011;27814;53.452;-6.180;2023-01-16T08:19:45;7.78;;;0.90;;
41815;SDS011;27814;53.452;-6.180;2023-01-16T08:22:15;3.60;;;0.70;;
41815;SDS011;27814;53.452;-6.180;2023-01-16T08:24:43;2.57;;;0.70;;
41815;SDS011;27814;53.452;-6.180;2023-01-16T08:27:11;4.47;;;0.75;;
41815;SDS011;27814;53.452;-6.180;2023-01-16T08:29:40;2.15;;;0.80;;
41815;SDS011;27814;53.452;-6.180;2023-01-16T08:32:08;3.65;;;1.00;;
41815;SDS011;27814;53.452;-6.180;2023-01-16T08:34:37;3.03;;;0.70;;
41815;SDS011;27814;53.452;-6.180;2023-01-16T08:37:05;4.18;;;0.90;;
41815;SDS011;27814;53.452;-6.180;2023-01-16T08:39:38;3.13;;;0.73;;
41815;SDS011;27814;53.452;-6.180;2023-01-16T08:42:06;2.97;;;1.00;;
41815;SDS011;27814;53.452;-6.180;2023-01-16T08:44:52;3.20;;;0.63;;
41815;SDS011;27814;53.452;-6.180;2023-01-16T08:47:37;5.97;;;0.85;;
41815;SDS011;27814;53.452;-6.180;2023-01-16T08:50:24;3.85;;;1.02;;
41815;SDS011;27814;53.452;-6.180;2023-01-16T08:53:10;3.45;;;0.77;;
41815;SDS011;27814;53.452;-6.180;2023-01-16T08:55:40;3.58;;;0.90;;
41815;SDS011;27814;53.452;-6.180;2023-01-16T08:58:08;3.67;;;0.80;;
41815;SDS011;27814;53.452;-6.180;2023-01-16T09:00:36;5.18;;;0.77;;
41815;SDS011;27814;53.452;-6.180;2023-01-16T09:03:05;3.63;;;1.02;;
41815;SDS011;27814;53.452;-6.180;2023-01-16T09:05:33;4.47;;;1.05;;
41815;SDS011;27814;53.452;-6.180;2023-01-16T09:08:02;3.97;;;0.82;;
41815;SDS011;27814;53.452;-6.180;2023-01-16T09:10:31;1.17;;;0.50;;
41815;SDS011;27814;53.452;-6.180;2023-01-16T09:13:00;5.28;;;1.00;;
41815;SDS011;27814;53.452;-6.180;2023-01-16T09:15:46;2.75;;;0.70;;
41815;SDS011;27814;53.452;-6.180;2023-01-16T09:18:14;4.10;;;0.93;;
41815;SDS011;27814;53.452;-6.180;2023-01-16T09:20:43;4.15;;;0.80;;
41815;SDS011;27814;53.452;-6.180;2023-01-16T09:23:11;4.10;;;0.85;;
41815;SDS011;27814;53.452;-6.180;2023-01-16T09:25:39;6.47;;;1.10;;
41815;SDS011;27814;53.452;-6.180;2023-01-16T09:28:09;5.30;;;0.97;;
41815;SDS011;27814;53.452;-6.180;2023-01-16T09:30:37;3.53;;;0.80;;
41815;SDS011;27814;53.452;-6.180;2023-01-16T09:33:06;1.70;;;0.52;;
41815;SDS011;27814;53.452;-6.180;2023-01-16T09:35:34;2.75;;;0.75;;
41815;SDS011;27814;53.452;-6.180;2023-01-16T09:38:02;3.30;;;0.70;;
41815;SDS011;27814;53.452;-6.180;2023-01-16T09:40:31;2.65;;;0.82;;
41815;SDS011;27814;53.452;-6.180;2023-01-16T09:43:03;3.08;;;0.60;;
41815;SDS011;27814;53.452;-6.180;2023-01-16T09:46:01;2.80;;;0.68;;
41815;SDS011;27814;53.452;-6.180;2023-01-16T09:48:33;4.80;;;0.82;;
41815;SDS011;27814;53.452;-6.180;2023-01-16T09:51:06;3.22;;;0.65;;
41815;SDS011;27814;53.452;-6.180;2023-01-16T09:53:39;2.40;;;0.60;;
41815;SDS011;27814;53.452;-6.180;2023-01-16T09:56:30;2.92;;;0.60;;
41815;SDS011;27814;53.452;-6.180;2023-01-16T09:59:25;4.13;;;0.80;;
41815;SDS011;27814;53.452;-6.180;2023-01-16T10:01:59;2.83;;;0.70;;
41815;SDS011;27814;53.452;-6.180;2023-01-16T10:04:35;5.57;;;0.90;;
41815;SDS011;27814;53.452;-6.180;2023-01-16T10:07:08;4.57;;;0.90;;
41815;SDS011;27814;53.452;-6.180;2023-01-16T10:09:57;1.90;;;0.60;;
41815;SDS011;27814;53.452;-6.180;2023-01-16T10:12:32;4.30;;;0.67;;
41815;SDS011;27814;53.452;-6.180;2023-01-16T10:17:59;2.80;;;0.65;;
41815;SDS011;27814;53.452;-6.180;2023-01-16T10:20:47;2.13;;;0.68;;
41815;SDS011;27814;53.452;-6.180;2023-01-16T10:23:29;4.22;;;0.85;;
41815;SDS011;27814;53.452;-6.180;2023-01-16T10:26:06;3.70;;;0.80;;
41815;SDS011;27814;53.452;-6.180;2023-01-16T10:28:39;2.92;;;0.70;;
41815;SDS011;27814;53.452;-6.180;2023-01-16T10:31:24;3.67;;;0.80;;
41815;SDS011;27814;53.452;-6.180;2023-01-16T10:33:57;1.10;;;0.50;;
41815;SDS011;27814;53.452;-6.180;2023-01-16T10:36:30;3.67;;;0.70;;
41815;SDS011;27814;53.452;-6.180;2023-01-16T10:39:02;3.42;;;0.63;;
41815;SDS011;27814;53.452;-6.180;2023-01-16T10:41:31;3.10;;;0.70;;
41815;SDS011;27814;53.452;-6.180;2023-01-16T10:44:22;3.28;;;0.60;;
41815;SDS011;27814;53.452;-6.180;2023-01-16T10:47:17;3.38;;;0.55;;
41815;SDS011;27814;53.452;-6.180;2023-01-16T10:50:06;0.70;;;0.40;;
41815;SDS011;27814;53.452;-6.180;2023-01-16T10:52:35;5.07;;;0.90;;
41815;SDS011;27814;53.452;-6.180;2023-01-16T10:55:05;3.80;;;0.73;;
41815;SDS011;27814;53.452;-6.180;2023-01-16T10:57:34;4.10;;;0.70;;
41815;SDS011;27814;53.452;-6.180;2023-01-16T11:00:05;2.20;;;0.68;;
41815;SDS011;27814;53.452;-6.180;2023-01-16T11:02:41;2.97;;;0.50;;
41815;SDS011;27814;53.452;-6.180;2023-01-16T11:05:25;3.70;;;0.67;;
41815;SDS011;27814;53.452;-6.180;2023-01-16T11:07:55;3.20;;;0.63;;
41815;SDS011;27814;53.452;-6.180;2023-01-16T11:10:31;4.43;;;0.67;;
41815;SDS011;27814;53.452;-6.180;2023-01-16T11:13:00;3.08;;;0.60;;
41815;SDS011;27814;53.452;-6.180;2023-01-16T11:15:59;1.97;;;0.50;;
41815;SDS011;27814;53.452;-6.180;2023-01-16T11:18:47;2.55;;;0.60;;
41815;SDS011;27814;53.452;-6.180;2023-01-16T11:21:17;1.92;;;0.50;;
41815;SDS011;27814;53.452;-6.180;2023-01-16T11:23:56;4.97;;;0.70;;
41815;SDS011;27814;53.452;-6.180;2023-01-16T11:26:25;5.30;;;1.00;;
41815;SDS011;27814;53.452;-6.180;2023-01-16T11:28:55;3.83;;;0.68;;
41815;SDS011;27814;53.452;-6.180;2023-01-16T11:31:25;4.05;;;0.50;;
41815;SDS011;27814;53.452;-6.180;2023-01-16T11:33:59;2.45;;;0.60;;
41815;SDS011;27814;53.452;-6.180;2023-01-16T11:36:31;4.63;;;0.70;;
41815;SDS011;27814;53.452;-6.180;2023-01-16T11:39:02;2.63;;;0.60;;
41815;SDS011;27814;53.452;-6.180;2023-01-16T11:41:32;2.45;;;0.60;;
41815;SDS011;27814;53.452;-6.180;2023-01-16T11:44:15;3.58;;;0.70;;
41815;SDS011;27814;53.452;-6.180;2023-01-16T11:47:18;2.35;;;0.75;;
41815;SDS011;27814;53.452;-6.180;2023-01-16T11:49:52;1.30;;;0.50;;
41815;SDS011;27814;53.452;-6.180;2023-01-16T11:52:22;4.97;;;0.70;;
41815;SDS011;27814;53.452;-6.180;2023-01-16T11:54:54;3.35;;;0.47;;
41815;SDS011;27814;53.452;-6.180;2023-01-16T11:57:27;3.72;;;0.50;;
41815;SDS011;27814;53.452;-6.180;2023-01-16T12:00:27;1.83;;;0.60;;
41815;SDS011;27814;53.452;-6.180;2023-01-16T12:03:23;2.85;;;0.43;;
41815;SDS011;27814;53.452;-6.180;2023-01-16T12:06:17;2.00;;;0.30;;
41815;SDS011;27814;53.452;-6.180;2023-01-16T12:09:03;3.90;;;0.60;;
41815;SDS011;27814;53.452;-6.180;2023-01-16T12:14:53;1.88;;;0.60;;
41815;SDS011;27814;53.452;-6.180;2023-01-16T12:17:28;9.93;;;2.42;;
41815;SDS011;27814;53.452;-6.180;2023-01-16T12:20:08;7.05;;;2.13;;
41815;SDS011;27814;53.452;-6.180;2023-01-16T12:25:52;3.80;;;0.90;;
41815;SDS011;27814;53.452;-6.180;2023-01-16T12:28:29;2.42;;;0.57;;
41815;SDS011;27814;53.452;-6.180;2023-01-16T12:31:07;3.38;;;0.60;;
41815;SDS011;27814;53.452;-6.180;2023-01-16T12:34:00;5.00;;;0.77;;
41815;SDS011;27814;53.452;-6.180;2023-01-16T12:36:43;4.15;;;0.60;;
41815;SDS011;27814;53.452;-6.180;2023-01-16T12:39:22;2.10;;;0.88;;
41815;SDS011;27814;53.452;-6.180;2023-01-16T12:41:59;3.00;;;0.80;;
41815;SDS011;27814;53.452;-6.180;2023-01-16T12:44:55;4.85;;;0.98;;
41815;SDS011;27814;53.452;-6.180;2023-01-16T12:47:34;5.55;;;0.70;;
41815;SDS011;27814;53.452;-6.180;2023-01-16T12:50:19;3.88;;;1.20;;
41815;SDS011;27814;53.452;-6.180;2023-01-16T12:53:14;2.75;;;0.80;;
41815;SDS011;27814;53.452;-6.180;2023-01-16T12:55:56;3.28;;;1.00;;
41815;SDS011;27814;53.452;-6.180;2023-01-16T12:58:35;3.00;;;0.80;;
41815;SDS011;27814;53.452;-6.180;2023-01-16T13:01:16;2.78;;;0.70;;
41815;SDS011;27814;53.452;-6.180;2023-01-16T13:03:48;5.90;;;1.50;;
41815;SDS011;27814;53.452;-6.180;2023-01-16T13:06:27;5.13;;;1.23;;
41815;SDS011;27814;53.452;-6.180;2023-01-16T13:09:02;4.78;;;0.80;;
41815;SDS011;27814;53.452;-6.180;2023-01-16T13:11:38;6.75;;;2.70;;
41815;SDS011;27814;53.452;-6.180;2023-01-16T13:14:32;6.05;;;2.40;;
41815;SDS011;27814;53.452;-6.180;2023-01-16T13:17:02;5.40;;;1.42;;
41815;SDS011;27814;53.452;-6.180;2023-01-16T13:19:34;2.30;;;1.20;;
41815;SDS011;27814;53.452;-6.180;2023-01-16T13:22:06;2.75;;;0.90;;
41815;SDS011;27814;53.452;-6.180;2023-01-16T13:24:50;4.22;;;1.25;;
41815;SDS011;27814;53.452;-6.180;2023-01-16T13:27:25;6.40;;;2.50;;
41815;SDS011;27814;53.452;-6.180;2023-01-16T13:30:08;4.45;;;1.10;;
41815;SDS011;27814;53.452;-6.180;2023-01-16T13:32:42;2.55;;;1.33;;
41815;SDS011;27814;53.452;-6.180;2023-01-16T13:35:17;3.67;;;1.38;;
41815;SDS011;27814;53.452;-6.180;2023-01-16T13:37:54;4.45;;;1.55;;
41815;SDS011;27814;53.452;-6.180;2023-01-16T13:40:53;3.37;;;1.20;;
41815;SDS011;27814;53.452;-6.180;2023-01-16T13:43:38;3.72;;;0.77;;
41815;SDS011;27814;53.452;-6.180;2023-01-16T13:46:28;4.63;;;0.63;;
41815;SDS011;27814;53.452;-6.180;2023-01-16T13:48:57;3.95;;;0.70;;
41815;SDS011;27814;53.452;-6.180;2023-01-16T13:51:28;2.28;;;0.90;;
41815;SDS011;27814;53.452;-6.180;2023-01-16T13:53:57;3.45;;;0.77;;
41815;SDS011;27814;53.452;-6.180;2023-01-16T13:56:29;3.17;;;0.98;;
41815;SDS011;27814;53.452;-6.180;2023-01-16T13:58:58;2.27;;;0.60;;
41815;SDS011;27814;53.452;-6.180;2023-01-16T14:01:32;4.88;;;0.73;;
41815;SDS011;27814;53.452;-6.180;2023-01-16T14:04:27;4.55;;;1.20;;
41815;SDS011;27814;53.452;-6.180;2023-01-16T14:06:58;4.35;;;2.00;;
41815;SDS011;27814;53.452;-6.180;2023-01-16T14:09:59;8.07;;;3.22;;
41815;SDS011;27814;53.452;-6.180;2023-01-16T14:12:41;8.15;;;2.25;;
41815;SDS011;27814;53.452;-6.180;2023-01-16T14:15:16;6.20;;;2.60;;
41815;SDS011;27814;53.452;-6.180;2023-01-16T14:18:15;4.28;;;0.90;;
41815;SDS011;27814;53.452;-6.180;2023-01-16T14:20:51;1.45;;;0.60;;
41815;SDS011;27814;53.452;-6.180;2023-01-16T14:23:29;3.65;;;0.70;;
41815;SDS011;27814;53.452;-6.180;2023-01-16T14:26:19;4.47;;;1.50;;
41815;SDS011;27814;53.452;-6.180;2023-01-16T14:28:50;2.67;;;0.80;;
41815;SDS011;27814;53.452;-6.180;2023-01-16T14:31:22;2.90;;;0.63;;
41815;SDS011;27814;53.452;-6.180;2023-01-16T14:33:56;2.58;;;0.70;;
41815;SDS011;27814;53.452;-6.180;2023-01-16T14:36:27;3.03;;;0.70;;
41815;SDS011;27814;53.452;-6.180;2023-01-16T14:39:00;4.00;;;1.20;;
41815;SDS011;27814;53.452;-6.180;2023-01-16T14:41:30;5.80;;;1.20;;
41815;SDS011;27814;53.452;-6.180;2023-01-16T14:44:17;4.72;;;0.88;;
41815;SDS011;27814;53.452;-6.180;2023-01-16T14:47:05;2.58;;;0.90;;
41815;SDS011;27814;53.452;-6.180;2023-01-16T14:50:00;1.80;;;0.60;;
41815;SDS011;27814;53.452;-6.180;2023-01-16T14:56:02;3.07;;;0.97;;
41815;SDS011;27814;53.452;-6.180;2023-01-16T14:58:36;4.53;;;1.23;;
41815;SDS011;27814;53.452;-6.180;2023-01-16T15:01:14;5.70;;;1.30;;
41815;SDS011;27814;53.452;-6.180;2023-01-16T15:04:18;4.07;;;1.55;;
41815;SDS011;27814;53.452;-6.180;2023-01-16T15:06:52;5.07;;;1.00;;
41815;SDS011;27814;53.452;-6.180;2023-01-16T15:09:26;3.30;;;0.90;;
41815;SDS011;27814;53.452;-6.180;2023-01-16T15:11:57;4.57;;;0.90;;
41815;SDS011;27814;53.452;-6.180;2023-01-16T15:14:27;6.50;;;1.80;;
41815;SDS011;27814;53.452;-6.180;2023-01-16T15:17:01;6.28;;;1.20;;
41815;SDS011;27814;53.452;-6.180;2023-01-16T15:23:17;4.20;;;1.30;;
41815;SDS011;27814;53.452;-6.180;2023-01-16T15:28:43;7.63;;;1.40;;
41815;SDS011;27814;53.452;-6.180;2023-01-16T15:31:27;6.28;;;1.73;;
41815;SDS011;27814;53.452;-6.180;2023-01-16T15:34:02;5.38;;;1.20;;
41815;SDS011;27814;53.452;-6.180;2023-01-16T15:36:35;4.70;;;1.48;;
41815;SDS011;27814;53.452;-6.180;2023-01-16T15:39:14;5.07;;;1.70;;